createdAt,value
2023-05-09T00:00:46.870Z,101799.71
2023-05-09T00:03:14.567Z,101798.87
2023-05-09T00:05:42.132Z,101797.33
2023-05-09T00:08:09.394Z,101795.46
2023-05-09T00:10:37.047Z,101797.05
2023-05-09T00:13:04.228Z,101797.09
2023-05-09T00:15:32.320Z,101795.88
2023-05-09T00:17:59.555Z,101791.56
2023-05-09T00:20:26.761Z,101794.71
2023-05-09T00:22:53.761Z,101794.55
2023-05-09T00:25:20.926Z,101794.95
2023-05-09T00:27:47.952Z,101793.95
2023-05-09T00:30:15.095Z,101795.36
2023-05-09T00:32:42.259Z,101798.89
2023-05-09T00:35:10.390Z,101797.34
2023-05-09T00:37:37.547Z,101794.08
2023-05-09T00:40:06.677Z,101800.39
2023-05-09T00:42:33.877Z,101796.77
2023-05-09T00:45:09.244Z,101796.63
2023-05-09T00:47:36.595Z,101797.67
2023-05-09T00:50:04.015Z,101794.20
2023-05-09T00:52:31.147Z,101795.10
2023-05-09T00:54:58.248Z,101796.34
2023-05-09T00:57:25.379Z,101797.38
2023-05-09T00:59:52.506Z,101796.20
2023-05-09T01:02:19.711Z,101800.23
2023-05-09T01:04:46.982Z,101798.48
2023-05-09T01:07:22.761Z,101798.52
2023-05-09T01:10:25.529Z,101799.05
2023-05-09T01:13:24.580Z,101794.91
2023-05-09T01:16:01.864Z,101795.92
2023-05-09T01:18:54.662Z,101795.45
2023-05-09T01:21:25.901Z,101797.71
2023-05-09T01:24:31.311Z,101796.52
2023-05-09T01:27:29.139Z,101802.45
2023-05-09T01:30:00.221Z,101799.03
2023-05-09T01:32:28.668Z,101801.64
2023-05-09T01:34:56.891Z,101799.05
2023-05-09T01:37:28.380Z,101806.39
2023-05-09T01:39:57.469Z,101803.16
2023-05-09T01:42:24.451Z,101807.39
2023-05-09T01:44:51.453Z,101807.44
2023-05-09T01:47:18.615Z,101806.05
2023-05-09T01:49:46.308Z,101802.93
2023-05-09T01:52:15.929Z,101801.16
2023-05-09T01:54:43.275Z,101806.40
2023-05-09T01:57:10.361Z,101802.29
2023-05-09T01:59:38.072Z,101801.95
2023-05-09T02:02:05.096Z,101801.98
2023-05-09T02:04:33.111Z,101801.46
2023-05-09T02:07:00.159Z,101805.67
2023-05-09T02:09:27.334Z,101806.90
2023-05-09T02:11:55.334Z,101810.41
2023-05-09T02:14:22.439Z,101809.57
2023-05-09T02:16:50.086Z,101807.17
2023-05-09T02:19:17.667Z,101809.64
2023-05-09T02:21:44.762Z,101807.58
2023-05-09T02:24:11.907Z,101807.44
2023-05-09T02:26:39.057Z,101809.02
2023-05-09T02:29:07.415Z,101808.54
2023-05-09T02:31:34.474Z,101807.54
2023-05-09T02:34:02.557Z,101811.04
2023-05-09T02:36:29.726Z,101809.86
2023-05-09T02:38:56.744Z,101809.55
2023-05-09T02:41:23.899Z,101813.05
2023-05-09T02:43:51.025Z,101811.52
2023-05-09T02:46:18.232Z,101811.20
2023-05-09T02:48:46.321Z,101811.59
2023-05-09T02:51:13.368Z,101812.11
2023-05-09T02:53:40.782Z,101812.65
2023-05-09T02:56:09.026Z,101810.59
2023-05-09T02:58:36.138Z,101814.77
2023-05-09T03:01:03.357Z,101814.95
2023-05-09T03:03:31.262Z,101815.13
2023-05-09T03:05:58.319Z,101813.31
2023-05-09T03:08:25.660Z,101817.38
2023-05-09T03:10:53.142Z,101821.77
2023-05-09T03:13:20.654Z,101822.75
2023-05-09T03:15:47.869Z,101825.66
2023-05-09T03:18:15.011Z,101825.96
2023-05-09T03:20:42.210Z,101828.91
2023-05-09T03:23:10.406Z,101826.83
2023-05-09T03:25:37.533Z,101825.61
2023-05-09T03:28:06.328Z,101829.77
2023-05-09T03:30:33.625Z,101835.50
2023-05-09T03:33:01.703Z,101835.14
2023-05-09T03:35:28.853Z,101836.50
2023-05-09T03:37:56.185Z,101841.52
2023-05-09T03:40:23.449Z,101844.47
2023-05-09T03:42:55.478Z,101842.02
2023-05-09T03:45:22.777Z,101847.06
2023-05-09T03:47:50.047Z,101846.02
2023-05-09T03:50:17.121Z,101846.71
2023-05-09T03:52:44.549Z,101848.61
2023-05-09T03:55:12.944Z,101849.84
2023-05-09T03:57:40.160Z,101847.92
2023-05-09T04:00:10.558Z,101848.79
2023-05-09T04:02:50.235Z,101846.71
2023-05-09T04:05:23.675Z,101851.39
2023-05-09T04:07:51.164Z,101854.29
2023-05-09T04:10:19.908Z,101856.14
2023-05-09T04:12:47.103Z,101860.08
2023-05-09T04:15:16.132Z,101860.55
2023-05-09T04:17:44.533Z,101860.86
2023-05-09T04:20:12.652Z,101862.91
2023-05-09T04:22:39.748Z,101863.73
2023-05-09T04:25:08.692Z,101865.05
2023-05-09T04:27:36.178Z,101864.83
2023-05-09T04:30:04.033Z,101865.96
2023-05-09T04:32:31.906Z,101865.88
2023-05-09T04:34:59.082Z,101862.96
2023-05-09T04:37:30.875Z,101865.17
2023-05-09T04:39:58.858Z,101863.19
2023-05-09T04:42:34.044Z,101863.56
2023-05-09T04:45:01.426Z,101864.34
2023-05-09T04:47:28.783Z,101866.55
2023-05-09T04:49:55.865Z,101867.86
2023-05-09T04:52:23.084Z,101865.55
2023-05-09T04:54:50.139Z,101869.64
2023-05-09T04:57:19.510Z,101867.63
2023-05-09T04:59:51.169Z,101870.66
2023-05-09T05:02:19.141Z,101875.40
2023-05-09T05:04:47.185Z,101872.32
2023-05-09T05:07:14.860Z,101874.78
2023-05-09T05:09:44.085Z,101873.78
2023-05-09T05:12:11.375Z,101876.56
2023-05-09T05:14:39.458Z,101874.81
2023-05-09T05:17:08.549Z,101872.00
2023-05-09T05:19:35.990Z,101873.31
2023-05-09T05:22:03.490Z,101868.95
2023-05-09T05:24:31.144Z,101871.20
2023-05-09T05:26:59.245Z,101867.88
2023-05-09T05:29:26.470Z,101867.84
2023-05-09T05:31:53.592Z,101869.67
2023-05-09T05:34:21.242Z,101866.00
2023-05-09T05:36:48.567Z,101866.52
2023-05-09T05:39:15.808Z,101865.48
2023-05-09T05:41:42.903Z,101869.09
2023-05-09T05:44:10.607Z,101867.48
2023-05-09T05:46:38.123Z,101865.26
2023-05-09T05:49:05.505Z,101865.42
2023-05-09T05:51:32.878Z,101866.05
2023-05-09T05:54:00.177Z,101866.64
2023-05-09T05:56:27.290Z,101868.05
2023-05-09T05:58:55.276Z,101869.95
2023-05-09T06:01:23.122Z,101868.33
2023-05-09T06:03:56.128Z,101865.98
2023-05-09T06:06:26.791Z,101864.05
2023-05-09T06:08:55.608Z,101861.36
2023-05-09T06:11:22.788Z,101861.67
2023-05-09T06:13:49.707Z,101868.05
2023-05-09T06:16:19.880Z,101869.75
2023-05-09T06:18:49.290Z,101870.59
2023-05-09T06:21:16.419Z,101869.98
2023-05-09T06:23:57.824Z,101865.16
2023-05-09T06:26:30.486Z,101864.73
2023-05-09T06:28:57.614Z,101861.02
2023-05-09T06:31:25.602Z,101857.64
2023-05-09T06:33:53.273Z,101858.60
2023-05-09T06:36:20.351Z,101861.83
2023-05-09T06:38:47.355Z,101861.29
2023-05-09T06:41:14.370Z,101864.20
2023-05-09T06:43:41.344Z,101864.73
2023-05-09T06:46:08.387Z,101861.98
2023-05-09T06:48:35.446Z,101861.27
2023-05-09T06:51:02.450Z,101855.50
2023-05-09T06:53:29.428Z,101858.77
2023-05-09T06:55:56.379Z,101857.11
2023-05-09T06:58:23.382Z,101854.70
2023-05-09T07:00:50.842Z,101847.88
2023-05-09T07:03:17.800Z,101850.45
2023-05-09T07:05:44.769Z,101850.34
2023-05-09T07:08:11.771Z,101843.15
2023-05-09T07:10:41.614Z,101843.38
2023-05-09T07:13:08.684Z,101840.60
2023-05-09T07:15:41.986Z,101834.83
2023-05-09T07:18:09.941Z,101831.84
2023-05-09T07:20:37.028Z,101830.40
2023-05-09T07:23:04.595Z,101831.83
2023-05-09T07:25:31.905Z,101830.77
2023-05-09T07:27:58.932Z,101831.48
2023-05-09T07:30:26.075Z,101827.70
2023-05-09T07:32:53.191Z,101822.27
2023-05-09T07:35:20.606Z,101819.42
2023-05-09T07:37:49.352Z,101816.91
2023-05-09T07:40:16.688Z,101812.27
2023-05-09T07:42:49.727Z,101808.13
2023-05-09T07:45:17.846Z,101810.75
2023-05-09T07:47:45.976Z,101804.42
2023-05-09T07:50:13.046Z,101801.80
2023-05-09T07:52:39.991Z,101801.13
2023-05-09T07:55:07.667Z,101792.52
2023-05-09T07:57:34.728Z,101795.61
2023-05-09T08:00:01.779Z,101796.38
2023-05-09T08:02:31.299Z,101797.55
2023-05-09T08:04:59.449Z,101801.60
2023-05-09T08:07:27.341Z,101796.88
2023-05-09T08:09:54.448Z,101791.77
2023-05-09T08:12:22.484Z,101787.77
2023-05-09T08:14:49.604Z,101792.14
2023-05-09T08:17:17.073Z,101788.21
2023-05-09T08:19:44.049Z,101780.45
2023-05-09T08:22:17.659Z,101782.83
2023-05-09T08:24:45.734Z,101783.64
2023-05-09T08:27:14.100Z,101783.02
2023-05-09T08:29:41.461Z,101780.97
2023-05-09T08:32:08.693Z,101783.85
2023-05-09T08:34:36.546Z,101785.50
2023-05-09T08:37:04.178Z,101787.91
2023-05-09T08:39:31.544Z,101783.45
2023-05-09T08:41:59.539Z,101786.24
2023-05-09T08:44:27.054Z,101783.48
2023-05-09T08:46:56.821Z,101781.16
2023-05-09T08:49:23.839Z,101787.13
2023-05-09T08:51:50.836Z,101782.02
2023-05-09T08:54:20.789Z,101780.30
2023-05-09T08:56:50.837Z,101783.59
2023-05-09T08:59:19.784Z,101779.13
2023-05-09T09:01:46.949Z,101770.83
2023-05-09T09:04:14.160Z,101766.80
2023-05-09T09:06:41.185Z,101763.61
2023-05-09T09:09:12.144Z,101771.19
2023-05-09T09:11:39.315Z,101774.30
2023-05-09T09:14:13.365Z,101772.21
2023-05-09T09:16:41.853Z,101768.67
2023-05-09T09:19:13.705Z,101769.02
2023-05-09T09:21:45.702Z,101768.60
2023-05-09T09:24:13.571Z,101764.68
2023-05-09T09:26:48.395Z,101765.82
2023-05-09T09:29:15.647Z,101758.09
2023-05-09T09:31:46.582Z,101756.21
2023-05-09T09:34:17.402Z,101747.90
2023-05-09T09:36:44.344Z,101745.47
2023-05-09T09:39:11.653Z,101751.91
2023-05-09T09:41:39.003Z,101750.09
2023-05-09T09:44:19.428Z,101749.77
2023-05-09T09:46:55.926Z,101753.44
2023-05-09T09:49:24.115Z,101749.89
2023-05-09T09:51:56.239Z,101752.05
2023-05-09T09:54:23.402Z,101751.05
2023-05-09T09:56:55.198Z,101748.03
2023-05-09T09:59:25.132Z,101745.80
2023-05-09T10:01:59.723Z,101745.35
2023-05-09T10:04:44.879Z,101739.95
2023-05-09T10:07:15.048Z,101741.55
2023-05-09T10:09:44.212Z,101734.14
2023-05-09T10:12:12.307Z,101729.30
2023-05-09T10:14:39.235Z,101742.08
2023-05-09T10:17:06.435Z,101741.17
2023-05-09T10:19:33.565Z,101736.13
2023-05-09T10:22:10.182Z,101734.16
2023-05-09T10:24:48.456Z,101733.84
2023-05-09T10:27:15.725Z,101732.27
2023-05-09T10:29:49.817Z,101730.52
2023-05-09T10:32:52.771Z,101736.23
2023-05-09T10:35:22.254Z,101738.02
2023-05-09T10:37:49.692Z,101735.00
2023-05-09T10:40:17.066Z,101737.54
2023-05-09T10:42:44.593Z,101732.67
2023-05-09T10:45:12.830Z,101734.23
2023-05-09T10:47:40.440Z,101733.73
2023-05-09T10:50:08.586Z,101732.84
2023-05-09T11:22:15.866Z,101703.54
2023-05-09T11:24:47.449Z,101700.63
2023-05-09T11:27:21.787Z,101698.04
2023-05-09T11:29:53.405Z,101694.10
2023-05-09T11:32:22.724Z,101696.45
2023-05-09T11:34:49.886Z,101694.45
2023-05-09T11:37:17.920Z,101692.58
2023-05-09T11:39:58.904Z,101692.61
2023-05-09T11:42:29.090Z,101688.73
2023-05-09T11:44:56.922Z,101688.34
2023-05-09T11:47:24.276Z,101688.02
2023-05-09T11:49:51.629Z,101683.45
2023-05-09T11:52:22.236Z,101676.94
2023-05-09T11:54:49.827Z,101677.10
2023-05-09T11:57:19.850Z,101675.91
2023-05-09T11:59:46.861Z,101681.02
2023-05-09T12:02:13.942Z,101677.27
2023-05-09T12:04:41.005Z,101675.15
2023-05-09T12:07:08.060Z,101674.40
2023-05-09T12:09:38.357Z,101670.11
2023-05-09T12:12:12.392Z,101664.23
2023-05-09T12:14:39.916Z,101657.64
2023-05-09T12:17:08.202Z,101658.63
2023-05-09T12:19:35.225Z,101655.90
2023-05-09T12:22:03.938Z,101651.27
2023-05-09T12:24:31.465Z,101652.44
2023-05-09T12:26:59.516Z,101647.80
2023-05-09T12:29:26.507Z,101638.14
2023-05-09T12:31:53.909Z,101638.73
2023-05-09T12:34:21.891Z,101636.04
2023-05-09T12:36:52.078Z,101636.83
2023-05-09T12:39:22.053Z,101635.39
2023-05-09T12:41:57.905Z,101633.19
2023-05-09T12:44:30.728Z,101638.42
2023-05-09T12:47:02.248Z,101635.52
2023-05-09T12:49:30.704Z,101632.34
2023-05-09T12:51:59.150Z,101630.66
2023-05-09T12:54:29.841Z,101624.83
2023-05-09T12:56:58.469Z,101623.09
2023-05-09T12:59:27.104Z,101619.18
2023-05-09T13:01:59.102Z,101617.95
2023-05-09T13:04:27.715Z,101619.29
2023-05-09T13:06:55.925Z,101618.65
2023-05-09T13:09:23.592Z,101618.52
2023-05-09T13:11:53.193Z,101615.55
2023-05-09T13:14:21.914Z,101611.67
2023-05-09T13:16:48.945Z,101606.56
2023-05-09T13:19:16.543Z,101608.91
2023-05-09T13:21:43.627Z,101607.73
2023-05-09T13:24:10.722Z,101603.14
2023-05-09T13:26:37.758Z,101604.15
2023-05-09T13:29:04.789Z,101601.21
2023-05-09T13:31:31.801Z,101600.02
2023-05-09T13:33:58.857Z,101599.51
2023-05-09T13:36:25.810Z,101602.85
2023-05-09T13:38:53.793Z,101603.06
2023-05-09T13:41:23.960Z,101602.67
2023-05-09T13:43:51.192Z,101602.59
2023-05-09T13:46:18.317Z,101601.88
2023-05-09T13:48:45.348Z,101599.58
2023-05-09T13:51:12.396Z,101598.41
2023-05-09T13:53:39.459Z,101597.69
2023-05-09T13:56:09.417Z,101598.16
2023-05-09T13:58:36.715Z,101601.65
2023-05-09T14:01:03.680Z,101601.92
2023-05-09T14:03:31.973Z,101598.23
2023-05-09T14:05:59.793Z,101599.84
2023-05-09T14:08:26.882Z,101600.11
2023-05-09T14:10:53.928Z,101594.02
2023-05-09T14:13:21.011Z,101595.93
2023-05-09T14:15:48.128Z,101595.92
2023-05-09T14:18:18.389Z,101592.23
2023-05-09T14:20:46.478Z,101588.08
2023-05-09T14:23:13.663Z,101590.90
2023-05-09T14:25:40.659Z,101591.05
2023-05-09T14:28:09.619Z,101588.65
2023-05-09T14:30:36.803Z,101587.33
2023-05-09T14:33:04.015Z,101587.36
2023-05-09T14:35:34.223Z,101582.95
2023-05-09T14:38:01.741Z,101586.23
2023-05-09T14:40:32.252Z,101584.00
2023-05-09T14:43:02.558Z,101583.39
2023-05-09T14:45:30.427Z,101584.09
2023-05-09T14:47:57.820Z,101582.92
2023-05-09T14:50:24.848Z,101581.67
2023-05-09T14:52:51.889Z,101584.60
2023-05-09T14:55:19.536Z,101584.85
2023-05-09T14:57:46.571Z,101578.57
2023-05-09T15:00:21.226Z,101578.50
2023-05-09T15:02:49.979Z,101580.36
2023-05-09T15:05:17.324Z,101578.30
2023-05-09T15:07:44.397Z,101576.91
2023-05-09T15:10:11.532Z,101577.52
2023-05-09T15:12:38.594Z,101573.77
2023-05-09T15:15:17.579Z,101571.48
2023-05-09T15:17:45.008Z,101573.35
2023-05-09T15:20:12.749Z,101570.92
2023-05-09T15:22:39.769Z,101572.30
2023-05-09T15:25:07.275Z,101569.28
2023-05-09T15:27:34.184Z,101573.13
2023-05-09T15:30:01.171Z,101570.73
2023-05-09T15:32:28.636Z,101571.10
2023-05-09T15:34:55.631Z,101578.54
2023-05-09T15:37:22.581Z,101578.72
2023-05-09T15:39:49.560Z,101578.77
2023-05-09T15:42:16.627Z,101582.98
2023-05-09T15:44:43.731Z,101586.17
2023-05-09T15:47:10.937Z,101580.67
2023-05-09T15:49:38.000Z,101580.58
2023-05-09T15:52:05.839Z,101580.11
2023-05-09T15:54:33.652Z,101577.86
2023-05-09T15:57:00.922Z,101572.79
2023-05-09T15:59:29.608Z,101575.89
2023-05-09T16:01:56.697Z,101574.62
2023-05-09T16:04:24.663Z,101571.91
2023-05-09T16:06:52.258Z,101573.02
2023-05-09T16:09:19.617Z,101569.18
2023-05-09T16:11:46.637Z,101568.85
2023-05-09T16:14:13.922Z,101564.83
2023-05-09T16:16:41.134Z,101564.34
2023-05-09T16:19:08.784Z,101561.23
2023-05-09T16:21:37.831Z,101558.59
2023-05-09T16:24:05.488Z,101558.47
2023-05-09T16:26:32.525Z,101557.27
2023-05-09T16:28:59.558Z,101559.77
2023-05-09T16:31:27.548Z,101560.98
2023-05-09T16:33:54.743Z,101562.60
2023-05-09T16:36:22.125Z,101563.63
2023-05-09T16:38:49.158Z,101561.98
2023-05-09T16:41:17.608Z,101559.35
2023-05-09T16:43:44.721Z,101562.70
2023-05-09T16:46:11.908Z,101561.80
2023-05-09T16:48:38.886Z,101559.11
2023-05-09T16:51:06.116Z,101561.70
2023-05-09T16:53:33.108Z,101565.08
2023-05-09T16:56:00.336Z,101566.36
2023-05-09T16:58:27.457Z,101571.50
2023-05-09T17:00:55.405Z,101569.83
2023-05-09T17:03:22.436Z,101567.99
2023-05-09T17:05:49.442Z,101564.17
2023-05-09T17:08:16.429Z,101563.02
2023-05-09T17:10:43.443Z,101562.23
2023-05-09T17:13:10.706Z,101566.02
2023-05-09T17:15:38.592Z,101563.73
2023-05-09T17:18:06.650Z,101567.00
2023-05-09T17:20:33.764Z,101568.70
2023-05-09T17:23:00.791Z,101567.73
2023-05-09T17:25:28.285Z,101565.85
2023-05-09T17:27:55.300Z,101568.22
2023-05-09T17:30:23.173Z,101572.45
2023-05-09T17:32:50.813Z,101571.81
2023-05-09T17:35:20.155Z,101576.08
2023-05-09T17:37:47.206Z,101573.70
2023-05-09T17:40:14.996Z,101575.17
2023-05-09T17:42:42.434Z,101574.89
2023-05-09T17:45:11.433Z,101575.41
2023-05-09T17:47:39.272Z,101574.79
2023-05-09T17:50:07.412Z,101579.89
2023-05-09T17:52:34.435Z,101575.73
2023-05-09T17:55:02.008Z,101578.23
2023-05-09T17:57:28.946Z,101582.48
2023-05-09T17:59:56.016Z,101582.17
2023-05-09T18:02:24.285Z,101578.55
2023-05-09T18:04:51.788Z,101577.77
2023-05-09T18:07:19.490Z,101577.68
2023-05-09T18:09:46.531Z,101578.43
2023-05-09T18:12:13.647Z,101579.58
2023-05-09T18:14:40.693Z,101590.23
2023-05-09T18:17:07.762Z,101588.88
2023-05-09T18:19:35.673Z,101586.84
2023-05-09T18:22:04.019Z,101588.59
2023-05-09T18:24:31.123Z,101588.59
2023-05-09T18:26:58.059Z,101587.23
2023-05-09T18:29:25.045Z,101588.42
2023-05-09T18:31:52.100Z,101582.45
2023-05-09T18:34:19.296Z,101581.70
2023-05-09T18:36:47.792Z,101584.09
2023-05-09T18:39:15.217Z,101584.61
2023-05-09T18:41:42.783Z,101586.36
2023-05-09T18:44:10.091Z,101584.44
2023-05-09T18:46:38.520Z,101581.86
2023-05-09T18:49:05.746Z,101582.18
2023-05-09T18:51:34.354Z,101581.59
2023-05-09T18:54:01.662Z,101578.59
2023-05-09T18:56:30.664Z,101577.48
2023-05-09T18:58:57.702Z,101576.75
2023-05-09T19:01:25.826Z,101573.06
2023-05-09T19:03:54.470Z,101570.41
2023-05-09T19:06:22.291Z,101570.05
2023-05-09T19:08:49.407Z,101568.09
2023-05-09T19:11:16.436Z,101566.11
2023-05-09T19:13:48.714Z,101565.17
2023-05-09T19:16:16.347Z,101568.60
2023-05-09T19:18:43.485Z,101568.34
2023-05-09T19:21:11.122Z,101565.81
2023-05-09T19:23:38.308Z,101567.34
2023-05-09T19:26:05.342Z,101564.46
2023-05-09T19:28:32.801Z,101566.11
2023-05-09T19:31:00.880Z,101562.33
2023-05-09T19:33:28.206Z,101559.73
2023-05-09T19:35:55.579Z,101559.26
2023-05-09T19:38:22.933Z,101560.47
2023-05-09T19:40:51.120Z,101564.27
2023-05-09T19:43:18.220Z,101568.16
2023-05-09T19:45:45.534Z,101563.57
2023-05-09T19:48:15.850Z,101562.82
2023-05-09T19:50:43.493Z,101565.77
2023-05-09T19:53:10.714Z,101566.45
2023-05-09T19:55:37.773Z,101569.09
2023-05-09T19:58:05.172Z,101569.98
2023-05-09T20:00:32.695Z,101572.55
2023-05-09T20:02:59.997Z,101571.52
2023-05-09T20:05:52.959Z,101568.17
2023-05-09T20:08:19.777Z,101565.94
2023-05-09T20:10:47.080Z,101566.44
2023-05-09T20:13:14.179Z,101564.83
2023-05-09T20:15:41.230Z,101560.41
2023-05-09T20:18:08.617Z,101559.80
2023-05-09T20:20:35.764Z,101560.61
2023-05-09T20:23:28.051Z,101554.94
2023-05-09T20:25:55.722Z,101552.02
2023-05-09T20:28:23.384Z,101552.58
2023-05-09T20:30:50.365Z,101551.73
2023-05-09T20:33:17.350Z,101551.05
2023-05-09T20:35:44.143Z,101546.94
2023-05-09T20:38:11.844Z,101548.58
2023-05-09T20:40:39.410Z,101549.94
2023-05-09T20:43:06.465Z,101548.66
2023-05-09T20:45:33.276Z,101549.44
2023-05-09T20:48:01.764Z,101547.75
2023-05-09T20:50:29.231Z,101547.96
2023-05-09T20:52:56.248Z,101550.11
2023-05-09T20:55:23.071Z,101551.25
2023-05-09T20:57:49.946Z,101547.81
2023-05-09T21:00:17.045Z,101543.70
2023-05-09T21:02:44.287Z,101547.77
2023-05-09T21:05:11.284Z,101544.52
2023-05-09T21:07:38.289Z,101546.20
2023-05-09T21:10:05.780Z,101547.10
2023-05-09T21:12:32.892Z,101548.02
2023-05-09T21:14:59.730Z,101550.18
2023-05-09T21:17:26.677Z,101547.63
2023-05-09T21:19:53.543Z,101545.55
2023-05-09T21:22:20.379Z,101547.12
2023-05-09T21:24:47.235Z,101545.42
2023-05-09T21:27:14.469Z,101544.93
2023-05-09T21:29:41.288Z,101547.96
2023-05-09T21:32:08.174Z,101539.67
2023-05-09T21:34:35.611Z,101534.14
2023-05-09T21:37:02.409Z,101527.59
2023-05-09T21:39:29.242Z,101528.65
2023-05-09T21:41:56.047Z,101525.95
2023-05-09T21:44:22.836Z,101523.48
2023-05-09T21:46:50.012Z,101521.99
2023-05-09T21:49:17.106Z,101522.06
2023-05-09T21:51:43.918Z,101521.80
2023-05-09T21:54:11.143Z,101515.64
2023-05-09T21:56:38.030Z,101510.55
2023-05-09T21:59:04.949Z,101511.66
2023-05-09T22:01:31.953Z,101508.59
2023-05-09T22:03:58.924Z,101505.85
2023-05-09T22:06:27.238Z,101507.66
2023-05-09T22:08:54.206Z,101504.45
2023-05-09T22:11:21.496Z,101504.35
2023-05-09T22:13:48.409Z,101503.89
2023-05-09T22:16:15.388Z,101506.11
2023-05-09T22:18:42.413Z,101503.31
2023-05-09T22:21:09.509Z,101506.21
2023-05-09T22:24:01.865Z,101502.83
2023-05-09T22:26:28.773Z,101505.17
2023-05-09T22:28:56.136Z,101498.65
2023-05-09T22:31:24.551Z,101503.42
2023-05-09T22:33:52.177Z,101497.80
2023-05-09T22:36:19.871Z,101497.52
2023-05-09T22:38:46.853Z,101499.13
2023-05-09T22:41:14.369Z,101498.13
2023-05-09T22:43:41.727Z,101495.77
2023-05-09T22:46:08.935Z,101492.66
2023-05-09T22:48:36.030Z,101494.61
2023-05-09T22:51:03.496Z,101490.45
2023-05-09T22:53:31.040Z,101485.64
2023-05-09T22:55:58.072Z,101482.73
2023-05-09T22:58:25.230Z,101484.70
2023-05-09T23:00:52.220Z,101481.99
2023-05-09T23:03:19.321Z,101481.16
2023-05-09T23:05:46.374Z,101487.46
2023-05-09T23:08:13.321Z,101481.25
2023-05-09T23:10:40.300Z,101482.86
2023-05-09T23:13:07.912Z,101482.55
2023-05-09T23:15:35.485Z,101477.38
2023-05-09T23:18:03.370Z,101481.05
2023-05-09T23:20:30.508Z,101478.30
2023-05-09T23:22:57.737Z,101479.86
2023-05-09T23:25:24.742Z,101481.60
2023-05-09T23:27:51.704Z,101477.44
2023-05-09T23:30:18.824Z,101475.35
2023-05-09T23:32:46.141Z,101475.02
2023-05-09T23:35:13.316Z,101472.59
2023-05-09T23:37:40.370Z,101470.34
2023-05-09T23:40:08.152Z,101469.34
2023-05-09T23:42:35.139Z,101471.25
2023-05-09T23:45:02.448Z,101470.92
2023-05-09T23:47:29.471Z,101467.14
2023-05-09T23:49:56.464Z,101464.18
2023-05-09T23:52:23.452Z,101464.02
2023-05-09T23:54:50.662Z,101461.42
2023-05-09T23:57:17.709Z,101456.05
2023-05-09T23:59:45.148Z,101453.30
